Time;durP1;ratioP1;P1;durP2;ratioP2;P2;SDS_P1;SDS_P2;PMS_P1;PMS_P2;Temp;Humidity;BMP_temperature;BMP_pressure;BME280_temperature;BME280_humidity;BME280_pressure;Samples;Min_cycle;Max_cycle;Signal;HPM_P1;HPM_P2
2021/03/12 00:02:03;;;;;;;4.20;1.00;;;;;;;4.13;71.76;94884.16;5093793;28;20277;-74
2021/03/12 00:04:29;;;;;;;4.23;0.90;;;;;;;4.16;71.50;94871.91;5111541;28;20558;-74
2021/03/12 00:06:54;;;;;;;4.03;1.13;;;;;;;4.17;71.12;94867.56;5093649;28;20183;-74
2021/03/12 00:09:19;;;;;;;2.53;1.10;;;;;;;4.20;71.58;94869.88;5093835;28;20624;-74
2021/03/12 00:11:44;;;;;;;3.43;1.33;;;;;;;4.21;71.30;94862.03;5111829;28;20287;-74
2021/03/12 00:14:10;;;;;;;1.90;0.67;;;;;;;4.14;71.40;94881.47;5094640;28;20176;-74
2021/03/12 00:16:35;;;;;;;6.47;1.20;;;;;;;4.16;71.28;94889.06;5111890;28;20171;-74
2021/03/12 00:19:02;;;;;;;4.93;1.20;;;;;;;4.15;71.72;94884.84;5111876;28;20657;-74
2021/03/12 00:21:27;;;;;;;3.43;1.10;;;;;;;4.18;71.34;94892.31;5093570;28;20195;-74
2021/03/12 00:23:53;;;;;;;5.00;1.23;;;;;;;4.28;70.77;94887.25;5093314;28;20214;-74
2021/03/12 00:26:18;;;;;;;3.10;1.13;;;;;;;4.19;71.07;94886.25;5093159;28;20835;-74
2021/03/12 00:28:43;;;;;;;11.30;1.30;;;;;;;4.13;71.00;94877.28;5111679;28;20183;-74
2021/03/12 00:31:09;;;;;;;7.13;1.93;;;;;;;4.12;70.49;94893.63;5093592;28;20200;-74
2021/03/12 00:33:35;;;;;;;4.03;1.27;;;;;;;4.17;70.80;94883.00;5111696;28;20233;-75
2021/03/12 00:36:00;;;;;;;2.73;1.00;;;;;;;4.18;69.12;94894.91;5111623;28;20191;-74
2021/03/12 00:38:26;;;;;;;5.33;1.17;;;;;;;4.16;69.78;94913.03;5097826;28;20179;-74
2021/03/12 00:41:06;;;;;;;3.10;0.93;;;;;;;4.15;70.30;94933.69;5097604;28;20269;-74
2021/03/12 00:43:32;;;;;;;3.03;1.07;;;;;;;4.13;68.72;94920.13;5097530;28;20234;-74
2021/03/12 00:46:01;;;;;;;3.80;1.13;;;;;;;4.15;69.37;94946.53;5076646;28;20269;-74
2021/03/12 00:48:26;;;;;;;4.47;1.30;;;;;;;4.09;68.14;94924.72;5077188;28;20183;-74
2021/03/12 00:50:52;;;;;;;3.10;0.80;;;;;;;4.09;67.84;94942.72;5093876;28;20196;-74
2021/03/12 00:53:19;;;;;;;3.57;0.90;;;;;;;4.11;67.06;94943.41;5077150;28;20177;-74
2021/03/12 00:55:44;;;;;;;3.30;0.90;;;;;;;4.06;67.90;94948.06;5094773;28;20212;-75
2021/03/12 00:58:10;;;;;;;5.57;1.17;;;;;;;3.97;67.68;94943.66;5114433;28;20183;-75
2021/03/12 01:00:37;;;;;;;3.80;0.80;;;;;;;3.95;68.19;94942.97;5097232;28;20217;-74
2021/03/12 01:03:03;;;;;;;1.83;0.90;;;;;;;3.87;68.86;94943.59;5114135;28;20247;-74
2021/03/12 01:05:29;;;;;;;2.07;1.10;;;;;;;3.82;69.19;94955.19;5096919;28;20180;-74
2021/03/12 01:07:54;;;;;;;5.53;1.00;;;;;;;3.84;68.09;94943.03;5113440;28;20178;-75
2021/03/12 01:10:20;;;;;;;3.37;0.90;;;;;;;3.79;67.89;94938.25;5096912;28;20194;-74
2021/03/12 01:12:46;;;;;;;3.40;1.10;;;;;;;3.74;68.88;94953.22;5096929;28;20183;-75
2021/03/12 01:15:14;;;;;;;5.33;1.13;;;;;;;3.73;68.56;94953.34;5096726;28;20170;-74
2021/03/12 01:17:40;;;;;;;4.70;1.10;;;;;;;3.66;68.27;94938.41;5096469;28;20184;-74
2021/03/12 01:20:14;;;;;;;2.57;0.87;;;;;;;3.64;68.86;94949.75;5096743;28;20277;-74
2021/03/12 01:22:40;;;;;;;5.33;1.00;;;;;;;3.65;68.11;94943.66;5096713;28;20658;-74
2021/03/12 01:25:09;;;;;;;3.00;1.10;;;;;;;3.66;68.06;94961.50;5114376;28;20183;-74
2021/03/12 01:27:41;;;;;;;6.17;1.20;;;;;;;3.69;68.32;94971.53;5096644;28;20176;-74
2021/03/12 01:30:08;;;;;;;3.13;1.07;;;;;;;3.67;68.12;94965.72;5097108;28;20187;-74
2021/03/12 01:32:34;;;;;;;4.60;1.23;;;;;;;3.69;68.79;94965.59;5114873;28;20182;-74
2021/03/12 01:34:59;;;;;;;3.33;0.90;;;;;;;3.73;68.44;94961.84;5096232;28;20195;-74
2021/03/12 01:37:24;;;;;;;2.43;1.03;;;;;;;3.70;69.66;94967.22;5096428;28;20178;-74
2021/03/12 01:39:49;;;;;;;4.47;1.30;;;;;;;3.69;69.12;94981.81;5114232;28;20230;-74
2021/03/12 01:42:15;;;;;;;3.40;0.97;;;;;;;3.64;69.64;94989.06;5096109;28;20622;-74
2021/03/12 01:44:40;;;;;;;3.63;1.10;;;;;;;3.61;69.95;94980.78;5096183;28;20200;-74
2021/03/12 01:47:05;;;;;;;6.43;1.10;;;;;;;3.58;70.23;94991.28;5114002;28;20615;-74
2021/03/12 01:49:31;;;;;;;2.60;1.03;;;;;;;3.53;70.58;94978.78;5095808;28;20183;-74
2021/03/12 01:51:56;;;;;;;5.57;1.97;;;;;;;3.67;70.65;94973.41;5114283;28;20235;-73
2021/03/12 01:54:21;;;;;;;4.90;1.00;;;;;;;3.55;70.74;94976.94;5096003;28;20180;-74
2021/03/12 01:56:47;;;;;;;4.20;1.10;;;;;;;3.57;70.43;94969.94;5095956;28;20203;-74
2021/03/12 01:59:12;;;;;;;4.30;1.07;;;;;;;3.57;71.17;94976.81;5079095;28;20188;-74
2021/03/12 02:01:37;;;;;;;4.70;1.27;;;;;;;3.55;71.93;94978.69;5089725;28;20220;-74
2021/03/12 02:04:03;;;;;;;4.53;1.30;;;;;;;3.55;73.02;94982.06;5114076;28;20241;-74
2021/03/12 02:06:28;;;;;;;2.77;0.90;;;;;;;3.49;73.94;94985.13;5095686;28;20286;-74
2021/03/12 02:08:53;;;;;;;5.37;1.50;;;;;;;3.43;75.19;95000.97;5095723;28;21258;-74
2021/03/12 02:11:19;;;;;;;5.63;1.43;;;;;;;3.20;75.88;95002.75;5096643;28;20233;-74
2021/03/12 02:13:54;;;;;;;2.73;1.23;;;;;;;3.08;76.51;94996.75;5112771;28;20172;-74
2021/03/12 02:16:36;;;;;;;3.67;1.37;;;;;;;3.11;75.93;95001.69;5095592;28;20667;-74
2021/03/12 02:19:27;;;;;;;2.77;0.93;;;;;;;2.93;76.46;94987.69;5095660;28;20203;-74
2021/03/12 02:21:54;;;;;;;4.23;1.03;;;;;;;2.92;76.14;94995.50;5112040;28;20632;-74
2021/03/12 02:24:22;;;;;;;4.10;1.20;;;;;;;3.00;74.82;94988.00;5095510;28;20198;-74
2021/03/12 02:26:47;;;;;;;5.33;0.93;;;;;;;2.99;73.62;94994.09;5113741;28;20275;-74
2021/03/12 02:29:23;;;;;;;7.13;1.23;;;;;;;3.06;73.63;95000.38;5095519;28;20215;-74
2021/03/12 02:31:50;;;;;;;1.70;0.80;;;;;;;3.09;71.84;94990.72;5113577;28;20693;-73
2021/03/12 02:34:17;;;;;;;4.93;1.10;;;;;;;3.07;72.11;94989.19;5094964;28;20667;-73
2021/03/12 02:36:45;;;;;;;4.50;1.27;;;;;;;3.01;72.61;94995.63;5113486;28;20208;-73
2021/03/12 02:39:13;;;;;;;2.50;1.23;;;;;;;3.00;72.46;95003.41;5094689;28;20184;-73
2021/03/12 02:41:39;;;;;;;4.13;1.10;;;;;;;3.00;72.13;94990.59;5095055;28;20199;-73
2021/03/12 02:44:06;;;;;;;2.53;0.97;;;;;;;2.95;71.73;95006.34;5094611;28;20749;-73
2021/03/12 02:46:32;;;;;;;3.73;0.70;;;;;;;2.96;70.15;94996.88;5094839;28;20181;-73
2021/03/12 02:48:57;;;;;;;1.90;0.90;;;;;;;2.95;70.70;95008.09;5078212;28;20181;-73
2021/03/12 02:51:23;;;;;;;4.87;1.03;;;;;;;2.98;70.07;95005.28;5113192;28;20192;-73
2021/03/12 02:53:48;;;;;;;4.70;1.00;;;;;;;2.99;70.21;95006.91;5112634;28;20192;-73
2021/03/12 02:56:15;;;;;;;4.53;1.40;;;;;;;2.97;70.56;95013.91;5094707;28;20260;-72
2021/03/12 02:58:41;;;;;;;2.77;0.83;;;;;;;2.95;69.81;95026.03;5093845;28;20172;-73
2021/03/12 03:01:07;;;;;;;6.00;1.50;;;;;;;2.91;70.88;95029.75;5094862;28;20563;-73
2021/03/12 03:03:34;;;;;;;3.73;1.30;;;;;;;3.02;69.44;95030.59;5094732;28;20199;-72
2021/03/12 03:06:01;;;;;;;3.43;1.13;;;;;;;3.08;69.82;95039.56;5094223;28;20233;-75
2021/03/12 03:08:26;;;;;;;6.83;1.17;;;;;;;3.02;69.88;95040.84;5094853;28;20175;-75
2021/03/12 03:10:52;;;;;;;6.47;1.10;;;;;;;3.03;68.12;95045.06;5077679;28;20303;-75
2021/03/12 03:13:18;;;;;;;3.50;1.10;;;;;;;3.02;68.02;95058.81;5094636;28;20731;-74
2021/03/12 03:15:44;;;;;;;3.53;0.90;;;;;;;3.04;66.65;95051.81;5093957;28;20211;-75
2021/03/12 03:18:09;;;;;;;3.63;1.10;;;;;;;3.00;67.89;95045.25;5094641;28;20306;-75
2021/03/12 03:20:36;;;;;;;2.00;1.20;;;;;;;3.02;66.95;95052.88;5094548;28;20283;-75
2021/03/12 03:23:01;;;;;;;2.30;1.03;;;;;;;2.97;66.94;95054.94;5094406;28;20193;-75
2021/03/12 03:25:26;;;;;;;6.07;1.03;;;;;;;2.92;66.42;95063.00;5094084;28;20200;-75
2021/03/12 03:27:52;;;;;;;4.97;1.27;;;;;;;2.93;66.14;95046.66;5112418;28;20180;-74
2021/03/12 03:30:17;;;;;;;7.43;1.30;;;;;;;2.95;67.01;95065.31;5112513;28;20278;-75
2021/03/12 03:32:42;;;;;;;3.37;1.00;;;;;;;2.92;66.92;95065.56;5077374;28;20644;-76
2021/03/12 03:35:09;;;;;;;5.50;1.17;;;;;;;2.94;67.77;95066.25;5094136;28;20247;-75
2021/03/12 03:37:35;;;;;;;4.70;1.23;;;;;;;2.96;67.05;95077.22;5076941;28;20192;-75
2021/03/12 03:40:00;;;;;;;5.87;1.40;;;;;;;2.96;66.74;95082.34;5094171;28;20178;-74
2021/03/12 03:42:30;;;;;;;6.43;1.20;;;;;;;2.91;66.75;95079.28;5093962;28;20204;-75
2021/03/12 03:44:57;;;;;;;2.83;0.90;;;;;;;2.90;67.05;95085.34;5093971;28;20179;-75
2021/03/12 03:47:25;;;;;;;5.47;1.13;;;;;;;2.90;67.14;95085.34;5076770;28;20650;-75
2021/03/12 03:49:51;;;;;;;1.87;1.10;;;;;;;2.93;67.13;95084.31;5094150;28;20171;-75
2021/03/12 03:52:20;;;;;;;3.37;1.10;;;;;;;2.93;66.58;95104.84;5112218;28;20193;-75
2021/03/12 03:54:45;;;;;;;5.33;1.07;;;;;;;2.87;67.36;95111.22;5093791;28;20181;-75
2021/03/12 03:57:11;;;;;;;6.83;1.40;;;;;;;2.80;67.72;95110.84;5093873;28;20175;-75
2021/03/12 03:59:38;;;;;;;8.63;1.90;;;;;;;2.74;65.61;95106.19;5093652;28;20187;-75
2021/03/12 04:02:04;;;;;;;6.83;1.27;;;;;;;2.73;66.60;95098.56;5093737;28;20199;-75
2021/03/12 04:04:29;;;;;;;4.40;1.23;;;;;;;2.64;65.76;95110.31;5111789;28;20183;-75
2021/03/12 04:06:55;;;;;;;7.37;1.57;;;;;;;2.66;65.12;95102.53;5077083;28;20177;-75
2021/03/12 04:09:20;;;;;;;4.77;1.23;;;;;;;2.62;65.99;95107.06;5093133;28;20234;-75
2021/03/12 04:11:46;;;;;;;8.07;1.17;;;;;;;2.67;65.78;95117.00;5093245;28;20273;-75
2021/03/12 04:14:11;;;;;;;5.27;1.30;;;;;;;2.59;65.85;95117.53;5093763;28;20186;-74
2021/03/12 04:16:37;;;;;;;7.73;1.77;;;;;;;2.65;66.60;95121.38;5093500;28;20193;-75
2021/03/12 04:19:04;;;;;;;9.53;1.23;;;;;;;2.65;65.92;95103.44;5093324;28;20608;-75
2021/03/12 04:21:30;;;;;;;8.87;1.50;;;;;;;2.63;66.02;95124.06;5093516;28;20283;-75
2021/03/12 04:23:56;;;;;;;7.20;1.50;;;;;;;2.63;65.30;95118.13;5093665;28;20635;-74
2021/03/12 04:26:21;;;;;;;7.93;1.30;;;;;;;2.65;66.12;95134.19;5093209;28;20699;-74
2021/03/12 04:28:47;;;;;;;5.10;1.23;;;;;;;2.68;66.92;95131.44;5076703;28;20656;-75
2021/03/12 04:31:12;;;;;;;6.10;1.27;;;;;;;2.66;65.08;95141.81;5093276;28;20667;-75
2021/03/12 04:33:38;;;;;;;3.57;1.10;;;;;;;2.68;65.57;95136.56;5093667;28;20553;-72
2021/03/12 04:36:04;;;;;;;3.10;1.07;;;;;;;2.68;66.00;95146.81;5093412;28;20183;-75
2021/03/12 04:38:29;;;;;;;5.80;1.67;;;;;;;2.67;65.76;95140.06;5093567;28;20184;-75
2021/03/12 04:40:55;;;;;;;5.90;1.40;;;;;;;2.60;66.38;95136.28;5093167;28;20203;-75
2021/03/12 04:43:21;;;;;;;4.10;1.20;;;;;;;2.59;66.11;95150.03;5093386;28;20221;-75
2021/03/12 04:45:46;;;;;;;4.13;1.00;;;;;;;2.62;66.13;95149.81;5093204;28;20178;-75
2021/03/12 04:48:11;;;;;;;4.03;1.00;;;;;;;2.61;66.07;95168.69;5093701;28;20176;-74
2021/03/12 04:50:37;;;;;;;4.27;1.13;;;;;;;2.62;65.55;95157.50;5093539;28;20238;-75
2021/03/12 04:53:04;;;;;;;5.97;1.20;;;;;;;2.58;66.80;95163.78;5093102;28;20573;-74
2021/03/12 04:55:29;;;;;;;6.13;1.23;;;;;;;2.61;66.12;95171.25;5092913;28;20678;-76
2021/03/12 04:57:55;;;;;;;9.27;1.83;;;;;;;2.53;66.15;95158.97;5093414;28;20198;-74
2021/03/12 05:00:21;;;;;;;5.67;1.57;;;;;;;2.52;67.15;95178.66;5093297;28;20270;-74
2021/03/12 05:02:48;;;;;;;7.07;1.40;;;;;;;2.61;67.42;95166.13;5109770;28;20207;-75
2021/03/12 05:05:14;;;;;;;4.60;1.20;;;;;;;2.58;66.91;95171.47;5092996;28;20172;-75
2021/03/12 05:07:40;;;;;;;5.07;1.13;;;;;;;2.59;67.23;95176.50;5093291;28;20241;-75
2021/03/12 05:10:06;;;;;;;6.60;1.77;;;;;;;2.55;67.78;95173.31;5093113;28;20543;-75
2021/03/12 05:12:32;;;;;;;3.50;0.90;;;;;;;2.59;66.98;95166.25;5092899;28;20189;-75
2021/03/12 05:14:58;;;;;;;3.53;1.07;;;;;;;2.59;67.25;95178.25;5092862;28;20180;-75
2021/03/12 05:17:23;;;;;;;2.63;0.90;;;;;;;2.60;67.70;95175.56;5093424;28;20225;-75
2021/03/12 05:19:49;;;;;;;4.80;1.40;;;;;;;2.59;67.33;95176.50;5093149;28;20255;-75
2021/03/12 05:22:14;;;;;;;5.53;1.20;;;;;;;2.60;67.48;95174.75;5093964;28;20201;-74
2021/03/12 05:24:40;;;;;;;6.03;1.30;;;;;;;2.60;67.74;95185.00;5080450;28;20189;-75
2021/03/12 05:27:06;;;;;;;8.43;1.40;;;;;;;2.57;67.19;95182.66;5114974;28;20184;-75
2021/03/12 05:29:31;;;;;;;5.83;1.13;;;;;;;2.52;67.37;95186.34;5096557;28;20184;-75
2021/03/12 05:31:56;;;;;;;6.30;1.70;;;;;;;2.55;67.75;95180.19;5096640;28;20426;-75
2021/03/12 05:34:22;;;;;;;7.83;1.30;;;;;;;2.58;68.09;95179.97;5114299;28;20164;-74
2021/03/12 05:36:47;;;;;;;4.20;1.03;;;;;;;2.53;67.57;95184.59;5096676;28;20180;-75
2021/03/12 05:39:12;;;;;;;4.50;1.30;;;;;;;2.51;68.13;95186.47;5115129;28;20173;-75
2021/03/12 05:41:38;;;;;;;5.83;1.40;;;;;;;2.51;68.71;95189.84;5096497;28;20622;-75
2021/03/12 05:44:05;;;;;;;5.93;1.50;;;;;;;2.50;69.10;95180.53;5096190;28;20211;-75
2021/03/12 05:46:31;;;;;;;8.70;1.57;;;;;;;2.52;68.63;95182.97;5114056;28;20662;-75
2021/03/12 05:48:56;;;;;;;3.80;1.20;;;;;;;2.58;68.54;95192.81;5095179;28;20192;-76
2021/03/12 05:51:22;;;;;;;3.07;1.00;;;;;;;2.62;68.41;95188.25;5115251;27;20199;-77
2021/03/12 05:53:48;;;;;;;8.07;1.40;;;;;;;2.64;68.46;95187.22;5112054;27;20625;-76
2021/03/12 05:56:13;;;;;;;4.70;1.43;;;;;;;2.57;68.91;95185.22;5090893;28;20180;-77
2021/03/12 05:58:39;;;;;;;4.87;1.17;;;;;;;2.58;68.74;95189.41;5097850;28;20207;-76
2021/03/12 06:01:05;;;;;;;5.23;1.03;;;;;;;2.63;69.13;95192.47;5095165;28;20258;-76
2021/03/12 06:03:30;;;;;;;3.90;1.47;;;;;;;2.67;69.25;95194.72;5089497;28;20184;-76
2021/03/12 06:05:55;;;;;;;5.37;1.20;;;;;;;2.66;69.68;95199.97;5105061;28;20176;-77
2021/03/12 06:08:21;;;;;;;4.13;1.13;;;;;;;2.71;69.60;95193.56;5103586;28;20547;-77
2021/03/12 06:10:46;;;;;;;6.17;1.33;;;;;;;2.73;69.78;95203.69;5113444;28;20204;-76
2021/03/12 06:13:11;;;;;;;7.33;1.30;;;;;;;2.70;70.23;95204.75;5106306;28;20208;-76
2021/03/12 06:15:39;;;;;;;7.07;1.37;;;;;;;2.74;70.40;95203.63;5078227;28;20223;-76
2021/03/12 06:18:20;;;;;;;4.20;1.17;;;;;;;2.71;70.68;95203.00;5095017;28;20266;-77
2021/03/12 06:20:46;;;;;;;6.17;1.40;;;;;;;2.72;70.78;95195.19;5088484;28;20559;-76
2021/03/12 06:23:11;;;;;;;3.33;1.20;;;;;;;2.74;71.12;95206.19;5074595;28;20300;-74
2021/03/12 06:25:36;;;;;;;6.97;1.80;;;;;;;2.73;71.59;95199.41;5112296;28;20219;-76
2021/03/12 06:28:13;;;;;;;4.10;1.27;;;;;;;2.71;71.06;95203.81;5077817;28;20207;-76
2021/03/12 06:30:39;;;;;;;3.07;1.40;;;;;;;2.77;69.88;95202.56;5111520;28;20208;-76
2021/03/12 06:33:04;;;;;;;6.90;1.30;;;;;;;2.76;68.82;95206.88;5094767;28;20192;-76
2021/03/12 06:35:35;;;;;;;3.63;0.87;;;;;;;2.80;68.79;95197.22;5094219;28;20180;-76
2021/03/12 06:38:08;;;;;;;3.97;1.47;;;;;;;2.83;68.31;95202.16;5094560;28;20696;-76
2021/03/12 06:40:36;;;;;;;6.00;1.43;;;;;;;2.94;68.07;95209.88;5094455;28;20196;-76
2021/03/12 06:43:09;;;;;;;4.60;1.17;;;;;;;2.96;66.85;95207.22;5094542;28;20231;-76
2021/03/12 06:45:40;;;;;;;5.13;1.30;;;;;;;3.01;66.55;95210.28;5108480;28;20601;-76
2021/03/12 06:48:23;;;;;;;6.07;1.23;;;;;;;3.10;66.37;95220.69;5113125;28;20210;-76
2021/03/12 06:50:50;;;;;;;4.27;1.23;;;;;;;3.05;64.61;95219.38;5111908;28;20569;-76
2021/03/12 06:53:30;;;;;;;2.63;0.90;;;;;;;3.13;65.57;95220.47;5090633;28;20254;-76
2021/03/12 06:56:01;;;;;;;6.10;1.20;;;;;;;3.18;65.05;95221.88;5106190;28;20842;-76
2021/03/12 06:58:27;;;;;;;2.83;0.90;;;;;;;3.22;65.11;95234.38;5114335;27;20280;-76
2021/03/12 07:00:52;;;;;;;5.13;0.80;;;;;;;3.18;65.01;95217.59;5089232;28;20283;-76
2021/03/12 07:03:24;;;;;;;4.67;1.03;;;;;;;3.18;65.40;95232.13;5089561;28;20729;-77
2021/03/12 07:05:53;;;;;;;3.00;1.03;;;;;;;3.18;65.81;95261.19;5105831;28;20605;-76
2021/03/12 07:08:27;;;;;;;3.03;1.10;;;;;;;2.98;69.68;95259.22;5073309;28;20282;-76
2021/03/12 07:10:52;;;;;;;5.10;1.30;;;;;;;2.76;72.33;95247.91;5092960;28;20242;-75
2021/03/12 07:13:17;;;;;;;3.87;1.13;;;;;;;2.79;72.35;95240.00;5094008;28;20204;-76
2021/03/12 07:15:43;;;;;;;2.53;1.20;;;;;;;2.77;72.36;95243.59;5093526;28;20183;-76
2021/03/12 07:18:08;;;;;;;3.87;1.40;;;;;;;2.85;71.64;95246.44;5112187;28;20176;-75
2021/03/12 07:20:33;;;;;;;5.07;1.00;;;;;;;2.87;71.37;95246.34;5092700;28;20213;-75
2021/03/12 07:22:59;;;;;;;2.23;0.90;;;;;;;2.83;71.92;95261.94;5090382;28;20209;-76
2021/03/12 07:25:26;;;;;;;6.93;1.80;;;;;;;2.83;72.19;95274.78;5089699;28;20566;-76
2021/03/12 07:27:51;;;;;;;4.47;1.53;;;;;;;2.82;72.88;95282.53;5093384;28;20184;-76
2021/03/12 07:30:17;;;;;;;8.27;1.43;;;;;;;2.79;74.36;95278.47;5090379;28;20704;-75
2021/03/12 07:32:44;;;;;;;5.70;1.27;;;;;;;2.90;74.24;95279.44;5092832;28;20187;-76
2021/03/12 07:35:09;;;;;;;3.27;1.10;;;;;;;3.02;73.55;95281.19;5087233;28;20190;-75
2021/03/12 07:37:35;;;;;;;6.50;1.10;;;;;;;2.96;72.91;95273.91;5110911;28;20249;-76
2021/03/12 07:40:03;;;;;;;5.53;0.90;;;;;;;2.93;71.23;95274.94;5100910;28;20189;-74
2021/03/12 07:42:29;;;;;;;5.13;1.30;;;;;;;3.08;71.43;95273.03;5079032;28;20204;-75
2021/03/12 07:44:55;;;;;;;3.03;0.90;;;;;;;3.28;70.97;95279.31;5109551;28;20262;-75
2021/03/12 07:47:21;;;;;;;0.90;0.70;;;;;;;3.58;70.34;95271.97;5092894;28;20183;-75
2021/03/12 07:49:47;;;;;;;3.20;1.13;;;;;;;3.74;69.47;95281.94;5089574;28;20191;-75
2021/03/12 07:52:13;;;;;;;3.30;1.27;;;;;;;4.02;68.66;95269.63;5069724;28;20593;-76
2021/03/12 07:54:42;;;;;;;4.80;1.00;;;;;;;4.14;67.51;95272.06;5092481;28;20179;-76
2021/03/12 07:57:08;;;;;;;4.63;1.40;;;;;;;4.08;67.21;95267.41;5093307;28;20194;-76
2021/03/12 07:59:57;;;;;;;5.90;1.20;;;;;;;4.32;66.97;95276.75;5083946;28;20179;-74
2021/03/12 08:02:22;;;;;;;3.40;1.17;;;;;;;4.37;66.82;95280.63;5111204;28;20258;-74
2021/03/12 08:04:48;;;;;;;5.47;1.73;;;;;;;4.17;65.84;95276.19;5076382;28;20216;-75
2021/03/12 08:07:23;;;;;;;4.20;1.10;;;;;;;4.11;65.59;95280.03;5092333;28;20246;-75
2021/03/12 08:09:52;;;;;;;4.90;1.27;;;;;;;4.05;66.50;95285.63;5110162;28;20275;-75
2021/03/12 08:12:30;;;;;;;3.83;1.50;;;;;;;4.01;67.39;95291.09;5092686;28;20214;-75
2021/03/12 08:15:15;;;;;;;6.67;2.20;;;;;;;3.86;67.50;95282.78;5092685;28;20171;-75
2021/03/12 08:17:44;;;;;;;5.03;1.10;;;;;;;3.90;66.90;95290.16;5092428;28;20205;-76
2021/03/12 08:20:25;;;;;;;2.60;1.10;;;;;;;3.90;67.01;95291.91;5092143;28;20635;-75
2021/03/12 08:22:53;;;;;;;2.80;1.53;;;;;;;3.87;66.98;95300.63;5088002;28;20213;-75
2021/03/12 08:25:31;;;;;;;36.30;4.50;;;;;;;3.61;67.49;95309.44;5089189;28;20180;-74
2021/03/12 08:27:56;;;;;;;27.40;4.27;;;;;;;3.34;69.16;95313.03;5110558;28;20283;-74
2021/03/12 08:30:21;;;;;;;5.43;1.40;;;;;;;3.27;70.15;95316.16;5110857;28;20203;-74
2021/03/12 08:32:46;;;;;;;3.40;0.90;;;;;;;3.38;71.15;95316.22;5111400;28;20177;-75
2021/03/12 08:35:34;;;;;;;3.60;1.20;;;;;;;3.56;70.89;95317.47;5110861;28;20189;-74
2021/03/12 08:38:18;;;;;;;5.07;1.30;;;;;;;3.47;71.11;95330.16;5111397;28;20270;-74
2021/03/12 08:40:57;;;;;;;7.17;1.27;;;;;;;3.39;70.69;95323.00;5095086;28;20205;-75
2021/03/12 08:43:25;;;;;;;3.67;1.13;;;;;;;3.52;70.88;95325.50;5095509;28;20684;-75
2021/03/12 08:45:55;;;;;;;6.47;1.20;;;;;;;3.54;70.07;95314.22;5089537;28;20176;-75
2021/03/12 08:48:25;;;;;;;2.60;0.93;;;;;;;3.83;70.06;95309.53;5090463;28;20277;-75
2021/03/12 08:50:58;;;;;;;9.30;0.97;;;;;;;4.11;69.74;95303.16;5087632;28;20301;-76
2021/03/12 08:53:29;;;;;;;3.97;1.00;;;;;;;4.28;68.94;95296.75;5104197;28;20171;-75
2021/03/12 08:55:55;;;;;;;7.00;1.30;;;;;;;4.41;67.78;95302.59;5109517;28;20216;-75
2021/03/12 08:58:26;;;;;;;4.03;1.10;;;;;;;4.42;67.43;95309.41;5113019;28;20201;-76
2021/03/12 09:00:54;;;;;;;4.60;1.10;;;;;;;4.46;67.65;95310.78;5096722;28;20204;-76
2021/03/12 09:03:27;;;;;;;3.60;1.00;;;;;;;4.34;67.06;95305.78;5101262;28;20242;-76
2021/03/12 09:05:54;;;;;;;2.37;0.87;;;;;;;4.40;65.83;95302.72;5096006;28;20574;-76
2021/03/12 09:08:25;;;;;;;5.50;1.00;;;;;;;4.42;66.64;95322.25;5080964;28;20642;-76
2021/03/12 09:10:51;;;;;;;5.13;1.07;;;;;;;4.22;67.39;95321.16;5075582;28;20195;-76
2021/03/12 09:13:19;;;;;;;1.80;0.80;;;;;;;4.26;69.06;95314.06;5090975;28;20209;-75
2021/03/12 09:15:45;;;;;;;6.20;1.27;;;;;;;3.81;70.29;95318.28;5069674;28;20174;-75
2021/03/12 09:18:15;;;;;;;6.80;1.00;;;;;;;3.91;69.29;95317.47;5078258;28;20642;-76
2021/03/12 09:20:41;;;;;;;2.63;1.00;;;;;;;3.89;69.18;95328.81;5095009;28;20200;-76
2021/03/12 09:23:06;;;;;;;3.43;0.90;;;;;;;3.85;69.34;95314.53;5087277;28;20207;-76
2021/03/12 09:25:32;;;;;;;6.10;0.93;;;;;;;3.88;68.80;95319.44;5095587;28;20202;-76
2021/03/12 09:28:04;;;;;;;3.40;1.07;;;;;;;3.97;68.07;95303.34;5095565;28;20603;-76
2021/03/12 09:30:32;;;;;;;4.20;1.13;;;;;;;3.95;68.74;95297.50;5095518;28;20276;-75
2021/03/12 09:32:58;;;;;;;2.40;1.30;;;;;;;4.31;68.30;95295.69;5093557;28;20173;-76
2021/03/12 09:35:24;;;;;;;5.50;1.23;;;;;;;4.59;67.79;95289.28;5096008;28;20255;-75
2021/03/12 09:37:54;;;;;;;5.23;1.10;;;;;;;4.86;66.40;95288.91;5112800;28;20229;-75
2021/03/12 09:40:46;;;;;;;4.73;1.20;;;;;;;5.01;65.69;95274.84;5094192;27;20230;-74
2021/03/12 09:43:12;;;;;;;2.87;0.87;;;;;;;5.36;64.12;95280.59;5084445;28;20563;-76
2021/03/12 09:45:38;;;;;;;4.20;1.17;;;;;;;5.23;63.38;95279.13;5093282;28;20184;-75
2021/03/12 09:48:04;;;;;;;5.80;1.50;;;;;;;5.30;64.12;95278.53;5078182;28;20180;-75
2021/03/12 09:50:34;;;;;;;5.53;1.43;;;;;;;5.23;64.20;95279.94;5094791;28;20212;-75
2021/03/12 09:53:03;;;;;;;6.20;1.10;;;;;;;5.43;63.84;95275.78;5093803;28;20181;-75
2021/03/12 09:55:29;;;;;;;8.50;1.80;;;;;;;5.74;63.83;95273.28;5094811;28;20183;-75
2021/03/12 09:57:54;;;;;;;3.40;1.17;;;;;;;5.83;63.45;95268.25;5105463;28;20234;-75
2021/03/12 10:00:22;;;;;;;5.07;1.20;;;;;;;5.66;62.46;95271.38;5101035;28;20211;-74
2021/03/12 10:02:58;;;;;;;4.47;1.23;;;;;;;5.76;62.14;95267.09;5112582;28;20204;-75
2021/03/12 10:05:24;;;;;;;3.27;1.43;;;;;;;5.64;61.26;95276.63;5094902;28;20184;-75
2021/03/12 10:07:50;;;;;;;6.20;1.20;;;;;;;5.42;60.08;95270.75;5094670;28;20761;-76
2021/03/12 10:10:21;;;;;;;4.37;1.00;;;;;;;5.46;60.89;95280.69;5094715;28;20252;-75
2021/03/12 10:12:48;;;;;;;6.77;1.50;;;;;;;5.43;58.89;95273.22;5091331;28;20188;-75
2021/03/12 10:15:20;;;;;;;2.97;1.20;;;;;;;5.64;59.76;95268.91;5095804;28;20218;-75
2021/03/12 10:17:46;;;;;;;3.07;1.10;;;;;;;5.64;58.39;95265.50;5074374;28;20203;-75
2021/03/12 10:20:21;;;;;;;6.53;1.53;;;;;;;5.64;59.07;95261.16;5071848;27;20715;-73
2021/03/12 10:22:49;;;;;;;5.90;0.97;;;;;;;5.81;58.79;95264.94;5103311;28;20207;-75
2021/03/12 10:25:22;;;;;;;2.50;1.10;;;;;;;5.77;58.25;95260.19;5093507;28;20195;-74
2021/03/12 10:27:55;;;;;;;4.47;1.60;;;;;;;5.90;57.84;95253.06;5114090;27;20179;-75
2021/03/12 10:30:31;;;;;;;3.10;1.17;;;;;;;5.58;57.34;95253.97;5102146;28;20208;-74
2021/03/12 10:33:04;;;;;;;6.97;2.30;;;;;;;5.88;57.20;95254.97;5070983;28;20188;-73
2021/03/12 10:35:43;;;;;;;11.17;1.70;;;;;;;5.40;55.51;95243.38;5111226;28;20241;-74
2021/03/12 10:38:20;;;;;;;5.57;1.37;;;;;;;5.43;54.91;95244.06;5119345;27;20183;-75
2021/03/12 10:40:48;;;;;;;3.80;1.03;;;;;;;5.42;54.80;95239.88;5071948;28;20199;-74
2021/03/12 10:43:19;;;;;;;2.40;1.10;;;;;;;5.58;55.00;95242.84;5097515;28;20619;-74
2021/03/12 10:45:49;;;;;;;4.17;1.37;;;;;;;5.40;54.75;95240.81;5111943;28;20804;-74
2021/03/12 10:48:15;;;;;;;3.27;0.80;;;;;;;5.48;54.21;95226.47;5099095;28;20191;-75
2021/03/12 10:50:41;;;;;;;2.90;1.00;;;;;;;5.56;55.43;95216.38;5093180;28;20210;-74
2021/03/12 10:53:13;;;;;;;5.23;1.33;;;;;;;5.59;55.87;95214.38;5117596;27;20184;-74
2021/03/12 10:55:44;;;;;;;4.40;1.47;;;;;;;5.97;55.65;95225.88;5093911;28;20179;-75
2021/03/12 10:58:33;;;;;;;3.23;1.57;;;;;;;5.65;54.40;95223.34;5111140;28;20699;-74
2021/03/12 11:01:14;;;;;;;4.80;1.80;;;;;;;5.83;55.95;95210.72;5082246;28;20212;-74
2021/03/12 11:03:44;;;;;;;5.40;1.77;;;;;;;6.03;55.27;95227.16;5093309;28;20216;-75
2021/03/12 11:06:10;;;;;;;2.40;0.80;;;;;;;5.57;57.18;95224.00;5111378;28;20232;-75
2021/03/12 11:08:36;;;;;;;4.40;1.60;;;;;;;5.86;55.29;95223.34;5110596;28;20202;-75
2021/03/12 11:11:05;;;;;;;4.87;1.80;;;;;;;5.63;55.19;95212.34;5090906;28;20208;-75
2021/03/12 11:13:30;;;;;;;4.23;1.87;;;;;;;5.68;55.45;95218.78;5116001;27;20183;-75
2021/03/12 11:15:55;;;;;;;5.17;1.57;;;;;;;5.86;55.88;95211.28;5114807;27;20381;-75
2021/03/12 11:18:21;;;;;;;4.87;1.50;;;;;;;6.03;54.20;95211.69;5106850;28;20188;-75
2021/03/12 11:20:46;;;;;;;4.20;1.53;;;;;;;6.17;54.70;95216.47;5107738;28;20199;-75
2021/03/12 11:23:12;;;;;;;3.77;0.90;;;;;;;6.22;53.70;95202.28;5111499;28;20204;-75
2021/03/12 11:25:38;;;;;;;2.33;1.30;;;;;;;6.21;53.31;95205.78;5087867;28;20188;-76
2021/03/12 11:28:04;;;;;;;4.73;1.30;;;;;;;6.21;53.35;95210.13;5092563;27;20184;-75
2021/03/12 11:30:30;;;;;;;5.83;1.77;;;;;;;6.27;52.74;95196.72;5095228;28;20257;-75
2021/03/12 11:32:55;;;;;;;2.17;0.80;;;;;;;6.40;51.71;95201.66;5109260;28;20203;-75
2021/03/12 11:35:20;;;;;;;2.63;1.20;;;;;;;6.35;51.94;95194.28;5092901;28;20218;-75
2021/03/12 11:37:46;;;;;;;4.27;1.00;;;;;;;6.48;51.52;95212.13;5082859;28;20460;-76
2021/03/12 11:40:12;;;;;;;3.83;1.07;;;;;;;6.29;52.29;95194.84;5104599;28;20273;-76
2021/03/12 11:42:38;;;;;;;5.23;1.43;;;;;;;6.44;51.85;95211.56;5090741;28;20204;-76
2021/03/12 11:45:06;;;;;;;4.67;1.23;;;;;;;6.55;52.56;95199.53;5086265;28;20274;-75